createdAt,value
2022-10-05T00:02:25.932Z,73.7
2022-10-05T00:04:52.529Z,73.5
2022-10-05T00:07:19.181Z,73.4
2022-10-05T00:09:45.781Z,73.1
2022-10-05T00:12:12.409Z,72.7
2022-10-05T00:14:39.027Z,73
2022-10-05T00:17:04.163Z,73
2022-10-05T00:19:30.775Z,73
2022-10-05T00:21:57.435Z,73
2022-10-05T00:24:24.028Z,72.8
2022-10-05T00:26:50.654Z,72.8
2022-10-05T00:29:17.332Z,72.8
2022-10-05T00:31:43.905Z,72.8
2022-10-05T00:34:10.533Z,73
2022-10-05T00:36:37.181Z,73.1
2022-10-05T00:39:03.747Z,73.1
2022-10-05T00:41:30.376Z,73.1
2022-10-05T00:43:57.069Z,73.2
2022-10-05T00:46:23.688Z,73.3
2022-10-05T00:48:48.744Z,73.3
2022-10-05T00:51:15.400Z,73.3
2022-10-05T00:53:42.004Z,73.3
2022-10-05T00:56:08.632Z,73.3
2022-10-05T00:58:35.268Z,73.3
2022-10-05T01:01:01.879Z,73.4
2022-10-05T01:03:28.508Z,73.6
2022-10-05T01:05:55.118Z,73.7
2022-10-05T01:08:21.781Z,73.7
2022-10-05T01:10:48.365Z,73.7
2022-10-05T01:13:15.007Z,73.7
2022-10-05T01:15:41.621Z,73.8
2022-10-05T01:18:08.228Z,73.8
2022-10-05T01:20:33.367Z,73.7
2022-10-05T01:23:00.006Z,73.6
2022-10-05T01:25:26.619Z,73.6
2022-10-05T01:27:53.219Z,73.6
2022-10-05T01:30:19.865Z,73.8
2022-10-05T01:32:46.486Z,73.9
2022-10-05T01:35:13.101Z,74
2022-10-05T01:37:39.706Z,74
2022-10-05T01:40:06.347Z,73.7
2022-10-05T01:42:32.965Z,73.7
2022-10-05T01:44:59.620Z,73.8
2022-10-05T01:47:26.224Z,74
2022-10-05T01:49:52.838Z,74.2
2022-10-05T01:52:17.960Z,74
2022-10-05T01:54:44.594Z,74
2022-10-05T01:57:11.248Z,74.2
2022-10-05T01:59:37.837Z,74.2
2022-10-05T02:02:04.451Z,74.2
2022-10-05T02:04:31.086Z,74.2
2022-10-05T02:06:57.709Z,74
2022-10-05T02:09:24.340Z,74
2022-10-05T02:11:50.947Z,74
2022-10-05T02:14:17.634Z,74
2022-10-05T02:16:44.180Z,74
2022-10-05T02:19:10.827Z,74
2022-10-05T02:21:37.429Z,73.8
2022-10-05T02:24:02.565Z,73.7
2022-10-05T02:26:29.180Z,73.7
2022-10-05T02:28:55.827Z,73.8
2022-10-05T02:31:22.434Z,74
2022-10-05T02:33:49.066Z,74
2022-10-05T02:36:15.705Z,74
2022-10-05T02:38:42.318Z,74
2022-10-05T02:41:08.925Z,73.6
2022-10-05T02:43:35.545Z,73.3
2022-10-05T02:46:02.180Z,73.2
2022-10-05T02:48:28.798Z,73.2
2022-10-05T02:50:55.429Z,72.8
2022-10-05T02:53:22.152Z,72.8
2022-10-05T02:55:47.197Z,72.8
2022-10-05T02:58:13.797Z,72.8
2022-10-05T03:00:40.439Z,72.8
2022-10-05T03:03:07.099Z,72.8
2022-10-05T03:05:33.653Z,72.7
2022-10-05T03:08:00.277Z,72.7
2022-10-05T03:10:26.916Z,72.6
2022-10-05T03:12:53.536Z,72.5
2022-10-05T03:15:20.153Z,72.5
2022-10-05T03:17:46.797Z,72.5
2022-10-05T03:20:13.412Z,72.5
2022-10-05T03:22:40.017Z,72.5
2022-10-05T03:25:06.646Z,72.5
2022-10-05T03:27:31.786Z,72.5
2022-10-05T03:29:58.401Z,72.4
2022-10-05T03:32:25.041Z,72.4
2022-10-05T03:34:51.642Z,72.4
2022-10-05T03:37:18.267Z,72.4
2022-10-05T03:39:44.904Z,72.4
2022-10-05T03:42:11.522Z,72.4
2022-10-05T03:44:38.145Z,72.4
2022-10-05T03:47:04.777Z,72.4
2022-10-05T03:49:31.392Z,72.3
2022-10-05T03:51:58.007Z,72.3
2022-10-05T03:54:24.630Z,72.3
2022-10-05T03:56:51.265Z,72.3
2022-10-05T03:59:16.384Z,72.3
2022-10-05T04:01:43.018Z,72.2
2022-10-05T04:04:09.632Z,72.2
2022-10-05T04:06:36.261Z,72.2
2022-10-05T04:09:02.883Z,72
2022-10-05T04:11:29.511Z,72.2
2022-10-05T04:13:56.125Z,72.2
2022-10-05T04:16:22.751Z,72.2
2022-10-05T04:18:49.364Z,72
2022-10-05T04:21:16.016Z,72
2022-10-05T04:23:42.678Z,72.2
2022-10-05T04:26:09.268Z,72
2022-10-05T04:28:35.918Z,72
2022-10-05T04:31:00.997Z,72
2022-10-05T04:33:27.642Z,72.2
2022-10-05T04:35:54.238Z,72.2
2022-10-05T04:38:20.891Z,72.2
2022-10-05T04:40:47.491Z,72.2
2022-10-05T04:43:14.156Z,72.2
2022-10-05T04:45:40.747Z,72.2
2022-10-05T04:48:07.408Z,72.2
2022-10-05T04:50:33.989Z,72.2
2022-10-05T04:53:00.647Z,72.3
2022-10-05T04:55:27.230Z,72.2
2022-10-05T04:57:53.856Z,72.2
2022-10-05T05:00:20.464Z,72.2
2022-10-05T05:02:45.608Z,72.2
2022-10-05T05:05:12.223Z,72.2
2022-10-05T05:07:38.849Z,72.2
2022-10-05T05:10:05.531Z,72.2
2022-10-05T05:12:32.089Z,72.3
2022-10-05T05:14:58.747Z,72.3
2022-10-05T05:17:25.355Z,72.3
2022-10-05T05:19:51.975Z,72.2
2022-10-05T05:22:18.577Z,72.1
2022-10-05T05:27:11.841Z,72.1
2022-10-05T05:29:38.523Z,72
2022-10-05T05:32:05.112Z,72.1
2022-10-05T05:34:30.218Z,72.1
2022-10-05T05:36:56.831Z,72.2
2022-10-05T05:39:23.455Z,72.2
2022-10-05T05:41:50.185Z,72.2
2022-10-05T05:44:16.760Z,72.2
2022-10-05T05:46:43.322Z,72.2
2022-10-05T05:49:09.949Z,72.3
2022-10-05T05:51:36.610Z,72.4
2022-10-05T05:54:03.239Z,72.4
2022-10-05T05:56:29.822Z,72.3
2022-10-05T05:58:56.447Z,72.3
2022-10-05T06:01:23.077Z,72.4
2022-10-05T06:03:49.801Z,72.4
2022-10-05T06:06:16.364Z,72.4
2022-10-05T06:08:41.494Z,72.4
2022-10-05T06:11:08.085Z,72.4
2022-10-05T06:13:34.794Z,72.3
2022-10-05T06:16:01.314Z,72.3
2022-10-05T06:18:27.943Z,72.3
2022-10-05T06:20:54.592Z,72.3
2022-10-05T06:23:21.188Z,72.3
2022-10-05T06:25:47.865Z,72.3
2022-10-05T06:28:14.555Z,72.2
2022-10-05T06:30:41.174Z,72.1
2022-10-05T06:33:07.700Z,72
2022-10-05T06:35:34.299Z,71.9
2022-10-05T06:38:01.042Z,71.8
2022-10-05T06:40:26.046Z,71.6
2022-10-05T06:42:52.688Z,71.4
2022-10-05T06:45:19.306Z,71.2
2022-10-05T06:50:12.577Z,71
2022-10-05T06:52:37.697Z,71
2022-10-05T06:55:04.344Z,70.8
2022-10-05T06:57:30.939Z,70.5
2022-10-05T06:59:57.588Z,70.4
2022-10-05T07:02:24.165Z,70.4
2022-10-05T07:04:50.808Z,69.9
2022-10-05T07:07:17.406Z,69.3
2022-10-05T07:09:44.062Z,68.9
2022-10-05T07:12:10.663Z,67.9
2022-10-05T07:14:37.296Z,67
2022-10-05T07:17:03.961Z,66.2
2022-10-05T07:19:30.522Z,65.5
2022-10-05T07:21:57.310Z,66.4
2022-10-05T07:24:22.319Z,74
2022-10-05T07:26:48.927Z,81.4
2022-10-05T07:29:15.527Z,92.6
2022-10-05T07:31:42.147Z,96.2
2022-10-05T07:34:08.769Z,100
2022-10-05T07:36:35.543Z,97.7
2022-10-05T07:39:02.045Z,94.8
2022-10-05T07:41:28.746Z,86.5
2022-10-05T07:43:55.264Z,82
2022-10-05T07:46:21.870Z,76.1
2022-10-05T07:48:48.625Z,72.9
2022-10-05T07:51:15.133Z,73.2
2022-10-05T07:53:41.775Z,74.3
2022-10-05T07:56:06.879Z,76.5
2022-10-05T07:58:33.535Z,75
2022-10-05T08:01:00.154Z,77
2022-10-05T08:03:26.834Z,79.7
2022-10-05T08:05:53.416Z,76.2
2022-10-05T08:08:20.000Z,76.1
2022-10-05T08:10:46.692Z,69.8
2022-10-05T08:13:13.231Z,72.7
2022-10-05T08:15:39.945Z,69.6
2022-10-05T08:18:06.601Z,70.3
2022-10-05T08:20:33.117Z,69.5
2022-10-05T08:22:59.825Z,68.3
2022-10-05T08:25:26.347Z,69.4
2022-10-05T08:27:51.550Z,66.9
2022-10-05T08:30:18.094Z,63.1
2022-10-05T08:32:44.747Z,65.1
2022-10-05T08:35:11.351Z,64.1
2022-10-05T08:37:37.988Z,63.7
2022-10-05T08:40:04.598Z,61.9
2022-10-05T08:42:31.334Z,60.5
2022-10-05T08:44:57.846Z,62.9
2022-10-05T08:47:24.453Z,60.5
2022-10-05T08:49:51.076Z,59.2
2022-10-05T08:52:17.744Z,57.6
2022-10-05T08:54:44.326Z,61.1
2022-10-05T08:57:10.953Z,55.3
2022-10-05T08:59:36.125Z,58
2022-10-05T09:02:02.704Z,53.6
2022-10-05T09:04:29.332Z,53.2
2022-10-05T09:06:55.954Z,53.6
2022-10-05T09:11:49.186Z,51.7
2022-10-05T09:14:15.833Z,54
2022-10-05T09:16:42.446Z,50.9
2022-10-05T09:19:09.065Z,53.7
2022-10-05T09:21:35.822Z,50.1
2022-10-05T09:24:02.395Z,49.9
2022-10-05T09:26:28.959Z,52.2
2022-10-05T09:28:55.561Z,51.1
2022-10-05T09:31:20.718Z,48.9
2022-10-05T09:33:47.311Z,52.5
2022-10-05T09:36:13.916Z,49.9
2022-10-05T09:38:40.545Z,48.9
2022-10-05T09:41:07.163Z,47
2022-10-05T09:43:33.896Z,48.5
2022-10-05T09:46:00.448Z,49.6
2022-10-05T09:48:27.079Z,51.2
2022-10-05T09:50:53.724Z,54.6
2022-10-05T09:53:20.294Z,58
2022-10-05T09:55:46.941Z,57.7
2022-10-05T09:58:13.526Z,61.2
2022-10-05T10:00:40.143Z,59.7
2022-10-05T10:03:05.277Z,61.8
2022-10-05T10:05:31.902Z,66
2022-10-05T10:07:58.525Z,65.5
2022-10-05T10:10:25.133Z,64.3
2022-10-05T10:12:51.771Z,66.7
2022-10-05T10:15:18.479Z,68
2022-10-05T10:17:45.021Z,67.5
2022-10-05T10:20:11.639Z,69.9
2022-10-05T10:25:04.943Z,69.1
2022-10-05T10:27:31.606Z,70
2022-10-05T10:29:58.182Z,70.8
2022-10-05T10:32:24.855Z,68.5
2022-10-05T10:34:49.930Z,68.8
2022-10-05T10:37:16.575Z,68.3
2022-10-05T10:39:43.179Z,67.4
2022-10-05T10:42:09.863Z,70.5
2022-10-05T10:44:36.371Z,71.5
2022-10-05T10:47:03.033Z,71.1
2022-10-05T10:49:29.602Z,71
2022-10-05T10:51:56.231Z,70.7
2022-10-05T10:54:22.851Z,71.2
2022-10-05T10:56:49.537Z,72.3
2022-10-05T10:59:16.138Z,71.1
2022-10-05T11:01:42.845Z,71.4
2022-10-05T11:04:09.351Z,69.8
2022-10-05T11:06:34.480Z,69.1
2022-10-05T11:09:01.095Z,71.5
2022-10-05T11:11:27.729Z,69.8
2022-10-05T11:13:54.366Z,67.9
2022-10-05T11:16:20.981Z,68.6
2022-10-05T11:18:47.600Z,68.2
2022-10-05T11:21:14.206Z,67.9
2022-10-05T11:26:07.450Z,66.6
2022-10-05T11:28:34.135Z,64.8
2022-10-05T11:31:00.851Z,59.8
2022-10-05T11:33:27.451Z,58.9
2022-10-05T11:35:54.078Z,64.2
2022-10-05T11:38:19.066Z,62.9
2022-10-05T11:40:45.717Z,61.5
2022-10-05T11:43:12.377Z,57.6
2022-10-05T11:45:38.966Z,62
2022-10-05T11:48:05.647Z,62.5
2022-10-05T11:50:32.183Z,60.5
2022-10-05T11:52:58.866Z,61.5
2022-10-05T11:55:25.491Z,61.5
2022-10-05T11:57:52.109Z,65.1
2022-10-05T12:00:18.677Z,61.7
2022-10-05T12:02:45.349Z,59
2022-10-05T12:05:11.925Z,59.2
2022-10-05T12:07:38.553Z,57.2
2022-10-05T12:10:03.672Z,58.3
2022-10-05T12:12:30.332Z,57.3
2022-10-05T12:14:56.966Z,57.6
2022-10-05T12:17:23.540Z,55.7
2022-10-05T12:19:50.209Z,56.9
2022-10-05T12:22:16.789Z,56
2022-10-05T12:24:43.406Z,55.3
2022-10-05T12:27:10.027Z,56.2
2022-10-05T12:29:36.654Z,55.5
2022-10-05T12:32:03.275Z,56.1
2022-10-05T12:34:29.908Z,55.8
2022-10-05T12:36:56.538Z,57.9
2022-10-05T12:39:23.185Z,55.5
2022-10-05T12:41:48.266Z,56.5
2022-10-05T12:44:14.885Z,58.2
2022-10-05T12:46:41.530Z,56
2022-10-05T12:49:08.141Z,55.5
2022-10-05T12:51:34.756Z,56
2022-10-05T12:54:01.446Z,57.5
2022-10-05T12:56:28.001Z,57.2
2022-10-05T12:58:54.641Z,55.6
2022-10-05T13:01:21.266Z,55.8
2022-10-05T13:03:47.871Z,55.7
2022-10-05T13:06:14.492Z,56.1
2022-10-05T13:08:41.221Z,55.1
2022-10-05T13:11:07.742Z,55.8
2022-10-05T13:13:32.855Z,54.9
2022-10-05T13:15:59.495Z,54.4
2022-10-05T13:18:26.119Z,55.9
2022-10-05T13:20:52.735Z,56.5
2022-10-05T13:23:19.372Z,55.7
2022-10-05T13:25:45.980Z,55.5
2022-10-05T13:28:12.600Z,58.4
2022-10-05T13:30:39.220Z,57.8
2022-10-05T13:33:05.852Z,55.7
2022-10-05T13:35:32.464Z,56.2
2022-10-05T13:37:59.092Z,55.6
2022-10-05T13:40:25.720Z,56.1
2022-10-05T13:42:52.337Z,55.8
2022-10-05T13:45:17.460Z,57.9
2022-10-05T13:47:44.085Z,58.9
2022-10-05T13:50:10.749Z,56.7
2022-10-05T13:52:37.344Z,56.7
2022-10-05T13:55:03.958Z,58.3
2022-10-05T13:57:30.580Z,56.4
2022-10-05T13:59:57.200Z,55
2022-10-05T14:02:23.868Z,57.1
2022-10-05T14:04:50.503Z,56.3
2022-10-05T14:07:17.068Z,54.5
2022-10-05T14:09:43.697Z,54.8
2022-10-05T14:14:36.933Z,56.1
2022-10-05T14:17:02.071Z,51.4
2022-10-05T14:19:28.689Z,52.6
2022-10-05T14:21:55.312Z,51
2022-10-05T14:24:21.932Z,49.7
2022-10-05T14:26:48.564Z,49
2022-10-05T14:29:15.175Z,49.8
2022-10-05T14:31:41.809Z,50
2022-10-05T14:36:35.072Z,46
2022-10-05T14:39:01.676Z,48.2
2022-10-05T14:41:28.295Z,47
2022-10-05T14:43:54.923Z,46.3
2022-10-05T14:46:21.546Z,46.1
2022-10-05T14:48:46.678Z,47.9
2022-10-05T14:53:39.952Z,49.2
2022-10-05T14:56:05.052Z,48.7
2022-10-05T14:58:30.181Z,47.8
2022-10-05T15:00:56.803Z,47.2
2022-10-05T15:03:21.932Z,50.8
2022-10-05T15:05:48.589Z,47.7
2022-10-05T15:08:15.173Z,47.6
2022-10-05T15:10:41.783Z,48.1
2022-10-05T15:13:08.416Z,48.3
2022-10-05T15:15:35.046Z,48.4
2022-10-05T15:18:01.701Z,48.1
2022-10-05T15:20:28.305Z,47.5
2022-10-05T15:22:53.410Z,50
2022-10-05T15:25:18.552Z,50
2022-10-05T15:27:45.196Z,50.3
2022-10-05T15:30:11.794Z,51.8
2022-10-05T15:32:38.417Z,52.5
2022-10-05T15:35:05.042Z,54
2022-10-05T15:37:31.668Z,55
2022-10-05T15:39:58.300Z,57.1
2022-10-05T15:42:24.929Z,58.5
2022-10-05T15:44:51.536Z,60.4
2022-10-05T15:47:18.152Z,61.4
2022-10-05T15:49:44.848Z,63.8
2022-10-05T15:52:11.418Z,66.1
2022-10-05T15:54:38.020Z,67.8
2022-10-05T15:57:03.151Z,67.7
2022-10-05T15:59:29.774Z,68.1
2022-10-05T16:01:56.415Z,69.3
2022-10-05T16:04:23.016Z,71.3
2022-10-05T16:06:49.646Z,77.1
2022-10-05T16:09:16.263Z,78.8
2022-10-05T16:14:09.504Z,72.8
2022-10-05T16:16:36.138Z,68.8
2022-10-05T16:19:02.762Z,66.9
2022-10-05T16:21:29.367Z,66.1
2022-10-05T16:23:56.000Z,66.4
2022-10-05T16:26:22.615Z,66
2022-10-05T16:28:47.744Z,65.4
2022-10-05T16:31:14.371Z,67
2022-10-05T16:33:40.990Z,68.9
2022-10-05T16:36:07.628Z,69.2
2022-10-05T16:38:34.252Z,71.9
2022-10-05T16:41:00.863Z,72.6
2022-10-05T16:43:27.485Z,73.3
2022-10-05T16:45:54.108Z,74.8
2022-10-05T16:48:20.748Z,76.2
2022-10-05T16:50:47.356Z,75.7
2022-10-05T16:53:13.982Z,76.4
2022-10-05T16:55:40.638Z,77.6
2022-10-05T16:58:07.286Z,78.7
2022-10-05T17:00:32.352Z,79.4
2022-10-05T17:02:58.982Z,80.9
2022-10-05T17:05:25.624Z,82.8
2022-10-05T17:07:52.224Z,81.4
2022-10-05T17:10:18.845Z,83.7
2022-10-05T17:12:45.465Z,85.2
2022-10-05T17:15:12.089Z,90
2022-10-05T17:17:38.714Z,89.9
2022-10-05T17:20:05.337Z,90.2
2022-10-05T17:22:31.954Z,91.8
2022-10-05T17:24:58.586Z,93.5
2022-10-05T17:27:25.243Z,94.6
2022-10-05T17:29:51.861Z,95.7
2022-10-05T17:32:16.956Z,95.3
2022-10-05T17:34:43.578Z,95.1
2022-10-05T17:37:10.200Z,93.8
2022-10-05T17:39:36.823Z,93.4
2022-10-05T17:42:03.433Z,91.1
2022-10-05T17:44:30.073Z,90.9
2022-10-05T17:46:56.691Z,93
2022-10-05T17:49:23.315Z,95.4
2022-10-05T17:51:49.929Z,96.7
2022-10-05T17:54:16.596Z,97.8
2022-10-05T17:56:43.176Z,98
2022-10-05T17:59:09.799Z,98.3
2022-10-05T18:01:36.421Z,98.4
2022-10-05T18:04:01.561Z,98.4
2022-10-05T18:08:54.807Z,98.2
2022-10-05T18:11:21.508Z,98
2022-10-05T18:13:48.049Z,97.5
2022-10-05T18:16:14.680Z,96.7
2022-10-05T18:18:41.277Z,96.7
2022-10-05T18:21:07.917Z,96.3
2022-10-05T18:23:34.529Z,95.7
2022-10-05T18:26:01.168Z,95.7
2022-10-05T18:28:27.786Z,95.2
2022-10-05T18:30:54.410Z,94.5
2022-10-05T18:33:21.037Z,93.6
2022-10-05T18:35:46.157Z,93.5
2022-10-05T18:38:12.762Z,93
2022-10-05T18:40:39.408Z,92.2
2022-10-05T18:43:06.028Z,91.2
2022-10-05T18:45:32.642Z,90.3
2022-10-05T18:47:59.265Z,89.7
2022-10-05T18:52:52.547Z,88.8
2022-10-05T18:55:19.139Z,88.5
2022-10-05T18:57:45.759Z,88.6
2022-10-05T19:00:12.434Z,88.5
2022-10-05T19:02:39.003Z,88.4
2022-10-05T19:05:05.633Z,88.5
2022-10-05T19:07:30.753Z,88.4
2022-10-05T19:09:57.377Z,87.3
2022-10-05T19:12:24.002Z,85.2
2022-10-05T19:14:50.627Z,83.3
2022-10-05T19:17:17.252Z,84.1
2022-10-05T19:19:43.905Z,84.1
2022-10-05T19:22:10.502Z,82.6
2022-10-05T19:24:37.130Z,83.5
2022-10-05T19:27:03.763Z,82
2022-10-05T19:29:30.374Z,82.5
2022-10-05T19:31:56.986Z,81.1
2022-10-05T19:34:23.607Z,79.8
2022-10-05T19:36:50.226Z,81.6
2022-10-05T19:39:15.358Z,80.5
2022-10-05T19:41:42.027Z,80.5
2022-10-05T19:44:08.615Z,78.4
2022-10-05T19:46:35.255Z,79.9
2022-10-05T19:49:01.844Z,80.2
2022-10-05T19:51:28.488Z,79.9
2022-10-05T19:53:55.087Z,77.6
2022-10-05T19:56:21.710Z,77.8
2022-10-05T19:58:48.340Z,77.2
2022-10-05T20:01:15.018Z,76.4
2022-10-05T20:06:08.222Z,76.9
2022-10-05T20:08:34.832Z,76
2022-10-05T20:10:59.940Z,76.8
2022-10-05T20:13:26.594Z,75.7
2022-10-05T20:15:53.204Z,77.8
2022-10-05T20:18:19.839Z,77.3
2022-10-05T20:20:46.454Z,76.1
2022-10-05T20:23:13.072Z,74.2
2022-10-05T20:25:39.726Z,74.2
2022-10-05T20:28:06.301Z,73.6
2022-10-05T20:30:32.941Z,73
2022-10-05T20:32:59.663Z,72.8
2022-10-05T20:35:26.207Z,72.7
2022-10-05T20:37:52.816Z,72.6
2022-10-05T20:40:19.438Z,72.5
2022-10-05T20:42:44.555Z,73
2022-10-05T20:45:11.175Z,73.8
2022-10-05T20:47:37.806Z,74.3
2022-10-05T20:50:04.482Z,74.6
2022-10-05T20:52:31.049Z,74.5
2022-10-05T20:54:57.738Z,74.3
2022-10-05T20:57:24.281Z,73.7
2022-10-05T20:59:50.908Z,73.3
2022-10-05T21:02:17.605Z,73.3
2022-10-05T21:04:44.158Z,73.5
2022-10-05T21:07:10.809Z,73.6
2022-10-05T21:09:37.411Z,73
2022-10-05T21:12:04.045Z,73
2022-10-05T21:14:29.156Z,73.2
2022-10-05T21:16:55.768Z,73.3
2022-10-05T21:19:22.397Z,72.5
2022-10-05T21:21:49.022Z,72.1
2022-10-05T21:24:15.644Z,71.7
2022-10-05T21:26:42.270Z,71.3
2022-10-05T21:29:08.892Z,71.3
2022-10-05T21:31:35.513Z,71.5
2022-10-05T21:34:02.131Z,71.7
2022-10-05T21:36:28.747Z,71.9
2022-10-05T21:38:55.385Z,71.9
2022-10-05T21:41:22.004Z,72.3
2022-10-05T21:43:48.642Z,72.1
2022-10-05T21:46:13.756Z,71.5
2022-10-05T21:48:40.374Z,71.6
2022-10-05T21:51:07.004Z,71.8
2022-10-05T21:53:33.626Z,71.6
2022-10-05T21:56:00.251Z,71.5
2022-10-05T21:58:26.869Z,71.7
2022-10-05T22:00:53.549Z,71.2
2022-10-05T22:03:20.113Z,71.4
2022-10-05T22:05:46.740Z,71.4
2022-10-05T22:08:13.375Z,71.2
2022-10-05T22:10:40.006Z,70.8
2022-10-05T22:13:06.648Z,71.2
2022-10-05T22:17:59.852Z,71
2022-10-05T22:20:25.018Z,71.1
2022-10-05T22:22:51.685Z,70.8
2022-10-05T22:25:18.219Z,70.7
2022-10-05T22:27:44.839Z,70.7
2022-10-05T22:30:11.467Z,70.8
2022-10-05T22:32:38.091Z,70.6
2022-10-05T22:35:04.717Z,70.9
2022-10-05T22:37:31.335Z,70.9
2022-10-05T22:39:57.948Z,70.8
2022-10-05T22:42:24.604Z,71
2022-10-05T22:44:51.211Z,70.7
2022-10-05T22:47:17.831Z,70.5
2022-10-05T22:49:44.454Z,70.3
2022-10-05T22:52:09.581Z,70.4
2022-10-05T22:54:36.199Z,70.3
2022-10-05T22:57:02.826Z,70.2
2022-10-05T22:59:29.462Z,70.2
2022-10-05T23:01:56.099Z,70
2022-10-05T23:04:22.746Z,70
2022-10-05T23:06:49.319Z,69.9
2022-10-05T23:09:15.938Z,70
2022-10-05T23:11:42.561Z,70.4
2022-10-05T23:14:07.704Z,69.8
2022-10-05T23:16:34.318Z,69.9
2022-10-05T23:19:00.952Z,69.8
2022-10-05T23:21:27.562Z,69.8
2022-10-05T23:23:54.207Z,69.6
2022-10-05T23:26:20.828Z,69.4
2022-10-05T23:28:47.424Z,69.3
2022-10-05T23:31:14.051Z,69.2
2022-10-05T23:33:40.689Z,69.4
2022-10-05T23:36:07.300Z,69.4
2022-10-05T23:38:33.935Z,69.4
2022-10-05T23:41:00.548Z,69.4
2022-10-05T23:43:27.161Z,69.1
2022-10-05T23:45:52.304Z,69
2022-10-05T23:48:18.923Z,69
2022-10-05T23:50:45.543Z,69.1
2022-10-05T23:53:12.165Z,69.1
2022-10-05T23:55:38.800Z,69
2022-10-05T23:58:05.415Z,69
